sensor_id;sensor_type;location;lat;lon;timestamp;pressure;altitude;pressure_sealevel;temperature;humidity
26775;BME280;14362;51.902;7.626;2023-05-22T00:03:43;100815.44;;;18.18;100.00
26775;BME280;14362;51.902;7.626;2023-05-22T00:07:44;100814.19;;;18.15;100.00
26775;BME280;14362;51.902;7.626;2023-05-22T00:11:45;100818.19;;;18.14;100.00
26775;BME280;14362;51.902;7.626;2023-05-22T00:15:47;100803.63;;;18.12;100.00
26775;BME280;14362;51.902;7.626;2023-05-22T00:19:54;100799.13;;;18.08;100.00
26775;BME280;14362;51.902;7.626;2023-05-22T00:23:55;100789.34;;;18.02;100.00
26775;BME280;14362;51.902;7.626;2023-05-22T00:27:57;100788.91;;;18.00;100.00
26775;BME280;14362;51.902;7.626;2023-05-22T00:31:58;100775.97;;;17.99;100.00
26775;BME280;14362;51.902;7.626;2023-05-22T00:36:01;100776.66;;;17.92;100.00
26775;BME280;14362;51.902;7.626;2023-05-22T00:40:03;100771.03;;;17.92;100.00
26775;BME280;14362;51.902;7.626;2023-05-22T00:44:05;100774.56;;;17.89;100.00
26775;BME280;14362;51.902;7.626;2023-05-22T00:48:07;100779.69;;;17.84;100.00
26775;BME280;14362;51.902;7.626;2023-05-22T00:52:11;100773.97;;;17.80;100.00
26775;BME280;14362;51.902;7.626;2023-05-22T00:56:13;100779.91;;;17.75;100.00
26775;BME280;14362;51.902;7.626;2023-05-22T01:00:16;100780.28;;;17.74;100.00
26775;BME280;14362;51.902;7.626;2023-05-22T01:04:18;100770.47;;;17.68;100.00
26775;BME280;14362;51.902;7.626;2023-05-22T01:08:22;100774.03;;;17.65;100.00
26775;BME280;14362;51.902;7.626;2023-05-22T01:12:34;100771.53;;;17.60;100.00
26775;BME280;14362;51.902;7.626;2023-05-22T01:16:46;100771.38;;;17.53;100.00
26775;BME280;14362;51.902;7.626;2023-05-22T01:20:53;100772.94;;;17.50;100.00
26775;BME280;14362;51.902;7.626;2023-05-22T01:25:18;100771.31;;;17.49;100.00
26775;BME280;14362;51.902;7.626;2023-05-22T01:29:32;100761.88;;;17.42;100.00
26775;BME280;14362;51.902;7.626;2023-05-22T01:33:40;100762.91;;;17.34;100.00
26775;BME280;14362;51.902;7.626;2023-05-22T01:37:43;100763.28;;;17.33;100.00
26775;BME280;14362;51.902;7.626;2023-05-22T01:41:45;100773.97;;;17.27;100.00
26775;BME280;14362;51.902;7.626;2023-05-22T01:45:47;100776.34;;;17.25;100.00
26775;BME280;14362;51.902;7.626;2023-05-22T01:49:50;100774.28;;;17.22;100.00
26775;BME280;14362;51.902;7.626;2023-05-22T01:53:56;100767.06;;;17.25;100.00
26775;BME280;14362;51.902;7.626;2023-05-22T01:58:09;100773.09;;;17.23;100.00
26775;BME280;14362;51.902;7.626;2023-05-22T02:02:14;100771.81;;;17.21;100.00
26775;BME280;14362;51.902;7.626;2023-05-22T02:06:18;100780.56;;;17.16;100.00
26775;BME280;14362;51.902;7.626;2023-05-22T02:10:20;100780.13;;;17.14;100.00
26775;BME280;14362;51.902;7.626;2023-05-22T02:14:22;100782.81;;;17.10;100.00
26775;BME280;14362;51.902;7.626;2023-05-22T02:18:25;100783.94;;;17.06;100.00
26775;BME280;14362;51.902;7.626;2023-05-22T02:22:29;100779.13;;;17.06;100.00
26775;BME280;14362;51.902;7.626;2023-05-22T02:26:33;100771.47;;;17.07;100.00
26775;BME280;14362;51.902;7.626;2023-05-22T02:30:34;100764.59;;;17.04;100.00
26775;BME280;14362;51.902;7.626;2023-05-22T02:34:36;100745.22;;;17.03;100.00
26775;BME280;14362;51.902;7.626;2023-05-22T02:38:39;100750.88;;;17.03;100.00
26775;BME280;14362;51.902;7.626;2023-05-22T02:42:40;100743.16;;;17.00;100.00
26775;BME280;14362;51.902;7.626;2023-05-22T02:46:42;100731.06;;;16.99;100.00
26775;BME280;14362;51.902;7.626;2023-05-22T02:50:43;100723.88;;;17.02;100.00
26775;BME280;14362;51.902;7.626;2023-05-22T02:54:48;100726.63;;;16.98;100.00
26775;BME280;14362;51.902;7.626;2023-05-22T02:58:50;100723.00;;;16.98;100.00
26775;BME280;14362;51.902;7.626;2023-05-22T03:02:51;100725.00;;;16.97;100.00
26775;BME280;14362;51.902;7.626;2023-05-22T03:06:53;100712.47;;;16.95;100.00
26775;BME280;14362;51.902;7.626;2023-05-22T03:10:56;100721.66;;;16.92;100.00
26775;BME280;14362;51.902;7.626;2023-05-22T03:14:58;100722.66;;;16.84;100.00
26775;BME280;14362;51.902;7.626;2023-05-22T03:19:07;100724.88;;;16.75;100.00
26775;BME280;14362;51.902;7.626;2023-05-22T03:23:09;100725.53;;;16.68;100.00
26775;BME280;14362;51.902;7.626;2023-05-22T03:27:13;100735.50;;;16.66;100.00
26775;BME280;14362;51.902;7.626;2023-05-22T03:31:15;100738.41;;;16.69;100.00
26775;BME280;14362;51.902;7.626;2023-05-22T03:35:17;100744.31;;;16.64;100.00
26775;BME280;14362;51.902;7.626;2023-05-22T03:39:19;100747.78;;;16.58;100.00
26775;BME280;14362;51.902;7.626;2023-05-22T03:43:22;100746.13;;;16.57;100.00
26775;BME280;14362;51.902;7.626;2023-05-22T03:47:23;100749.28;;;16.55;100.00
26775;BME280;14362;51.902;7.626;2023-05-22T03:51:25;100748.03;;;16.53;100.00
26775;BME280;14362;51.902;7.626;2023-05-22T03:55:26;100745.56;;;16.51;100.00
26775;BME280;14362;51.902;7.626;2023-05-22T03:59:31;100734.69;;;16.50;100.00
26775;BME280;14362;51.902;7.626;2023-05-22T04:03:32;100737.50;;;16.50;100.00
26775;BME280;14362;51.902;7.626;2023-05-22T04:07:34;100730.69;;;16.51;100.00
26775;BME280;14362;51.902;7.626;2023-05-22T04:11:35;100730.16;;;16.45;100.00
26775;BME280;14362;51.902;7.626;2023-05-22T04:15:40;100724.88;;;16.44;100.00
26775;BME280;14362;51.902;7.626;2023-05-22T04:19:42;100723.69;;;16.45;100.00
26775;BME280;14362;51.902;7.626;2023-05-22T04:23:44;100725.78;;;16.48;100.00
26775;BME280;14362;51.902;7.626;2023-05-22T04:27:45;100718.91;;;16.45;100.00
26775;BME280;14362;51.902;7.626;2023-05-22T04:31:48;100721.78;;;16.49;100.00
26775;BME280;14362;51.902;7.626;2023-05-22T04:35:53;100715.00;;;16.50;100.00
26775;BME280;14362;51.902;7.626;2023-05-22T04:39:55;100712.63;;;16.52;100.00
26775;BME280;14362;51.902;7.626;2023-05-22T04:43:57;100713.09;;;16.54;100.00
26775;BME280;14362;51.902;7.626;2023-05-22T04:48:01;100707.91;;;16.56;100.00
26775;BME280;14362;51.902;7.626;2023-05-22T04:52:03;100708.72;;;16.56;100.00
26775;BME280;14362;51.902;7.626;2023-05-22T04:56:06;100707.63;;;16.61;100.00
26775;BME280;14362;51.902;7.626;2023-05-22T05:00:08;100694.44;;;16.65;100.00
26775;BME280;14362;51.902;7.626;2023-05-22T05:04:12;100706.88;;;16.64;100.00
26775;BME280;14362;51.902;7.626;2023-05-22T05:08:13;100700.53;;;16.67;100.00
26775;BME280;14362;51.902;7.626;2023-05-22T05:12:14;100711.13;;;16.73;100.00
26775;BME280;14362;51.902;7.626;2023-05-22T05:16:16;100705.16;;;16.75;100.00
26775;BME280;14362;51.902;7.626;2023-05-22T05:20:19;100708.13;;;16.82;100.00
26775;BME280;14362;51.902;7.626;2023-05-22T05:24:21;100705.03;;;16.87;100.00
26775;BME280;14362;51.902;7.626;2023-05-22T05:28:22;100710.53;;;16.99;100.00
26775;BME280;14362;51.902;7.626;2023-05-22T05:32:24;100713.53;;;17.06;100.00
26775;BME280;14362;51.902;7.626;2023-05-22T05:36:28;100712.19;;;17.19;100.00
26775;BME280;14362;51.902;7.626;2023-05-22T05:40:30;100719.84;;;17.52;100.00
26775;BME280;14362;51.902;7.626;2023-05-22T05:44:31;100719.66;;;17.83;100.00
26775;BME280;14362;51.902;7.626;2023-05-22T05:48:33;100725.03;;;18.11;100.00
26775;BME280;14362;51.902;7.626;2023-05-22T05:52:36;100720.84;;;18.24;100.00
26775;BME280;14362;51.902;7.626;2023-05-22T05:56:37;100729.75;;;18.26;100.00
26775;BME280;14362;51.902;7.626;2023-05-22T06:00:39;100724.94;;;18.26;100.00
26775;BME280;14362;51.902;7.626;2023-05-22T06:04:41;100726.16;;;18.25;100.00
26775;BME280;14362;51.902;7.626;2023-05-22T06:08:44;100735.41;;;18.26;100.00
26775;BME280;14362;51.902;7.626;2023-05-22T06:12:45;100733.97;;;18.35;100.00
26775;BME280;14362;51.902;7.626;2023-05-22T06:16:47;100740.09;;;18.41;100.00
26775;BME280;14362;51.902;7.626;2023-05-22T06:20:48;100735.78;;;18.47;100.00
26775;BME280;14362;51.902;7.626;2023-05-22T06:24:51;100741.31;;;18.62;100.00
26775;BME280;14362;51.902;7.626;2023-05-22T06:28:53;100739.28;;;18.62;100.00
26775;BME280;14362;51.902;7.626;2023-05-22T06:32:55;100732.53;;;18.67;100.00
26775;BME280;14362;51.902;7.626;2023-05-22T06:36:56;100730.94;;;18.69;100.00
26775;BME280;14362;51.902;7.626;2023-05-22T06:40:59;100735.53;;;18.77;100.00
26775;BME280;14362;51.902;7.626;2023-05-22T06:45:00;100739.72;;;18.87;100.00
26775;BME280;14362;51.902;7.626;2023-05-22T06:49:02;100738.63;;;18.95;100.00
26775;BME280;14362;51.902;7.626;2023-05-22T06:53:04;100735.25;;;19.12;100.00
26775;BME280;14362;51.902;7.626;2023-05-22T06:57:07;100736.44;;;19.37;100.00
26775;BME280;14362;51.902;7.626;2023-05-22T07:01:08;100732.78;;;19.65;100.00
26775;BME280;14362;51.902;7.626;2023-05-22T07:05:10;100736.09;;;19.71;100.00
26775;BME280;14362;51.902;7.626;2023-05-22T07:09:11;100739.34;;;19.73;100.00
26775;BME280;14362;51.902;7.626;2023-05-22T07:13:16;100732.56;;;19.77;100.00
26775;BME280;14362;51.902;7.626;2023-05-22T07:17:17;100733.00;;;19.83;100.00
26775;BME280;14362;51.902;7.626;2023-05-22T07:21:19;100736.00;;;19.97;100.00
26775;BME280;14362;51.902;7.626;2023-05-22T07:25:22;100739.75;;;20.04;100.00
26775;BME280;14362;51.902;7.626;2023-05-22T07:29:25;100742.78;;;20.22;100.00
26775;BME280;14362;51.902;7.626;2023-05-22T07:33:27;100739.22;;;20.32;100.00
26775;BME280;14362;51.902;7.626;2023-05-22T07:37:28;100745.00;;;20.42;100.00
26775;BME280;14362;51.902;7.626;2023-05-22T07:41:30;100745.94;;;20.53;100.00
26775;BME280;14362;51.902;7.626;2023-05-22T07:45:33;100737.97;;;20.65;100.00
26775;BME280;14362;51.902;7.626;2023-05-22T07:49:35;100741.28;;;20.78;100.00
26775;BME280;14362;51.902;7.626;2023-05-22T07:53:36;100751.91;;;20.84;100.00
26775;BME280;14362;51.902;7.626;2023-05-22T07:57:38;100749.44;;;20.83;100.00
26775;BME280;14362;51.902;7.626;2023-05-22T08:01:41;100754.78;;;20.91;100.00
26775;BME280;14362;51.902;7.626;2023-05-22T08:05:42;100752.44;;;21.04;100.00
26775;BME280;14362;51.902;7.626;2023-05-22T08:09:44;100751.41;;;21.26;100.00
26775;BME280;14362;51.902;7.626;2023-05-22T08:13:46;100750.63;;;21.36;100.00
26775;BME280;14362;51.902;7.626;2023-05-22T08:17:49;100754.88;;;21.59;100.00
26775;BME280;14362;51.902;7.626;2023-05-22T08:21:50;100756.09;;;21.65;100.00
26775;BME280;14362;51.902;7.626;2023-05-22T08:25:57;100761.34;;;21.60;100.00
26775;BME280;14362;51.902;7.626;2023-05-22T08:30:00;100761.66;;;21.51;100.00
26775;BME280;14362;51.902;7.626;2023-05-22T08:34:04;100761.75;;;21.62;100.00
26775;BME280;14362;51.902;7.626;2023-05-22T08:38:06;100755.72;;;21.70;100.00
26775;BME280;14362;51.902;7.626;2023-05-22T08:42:07;100758.59;;;21.80;100.00
26775;BME280;14362;51.902;7.626;2023-05-22T08:46:09;100750.94;;;21.91;100.00
26775;BME280;14362;51.902;7.626;2023-05-22T08:50:12;100752.19;;;22.01;100.00
26775;BME280;14362;51.902;7.626;2023-05-22T08:54:14;100754.22;;;22.00;100.00
26775;BME280;14362;51.902;7.626;2023-05-22T08:58:19;100761.94;;;22.07;100.00
26775;BME280;14362;51.902;7.626;2023-05-22T09:02:21;100752.25;;;22.18;100.00
26775;BME280;14362;51.902;7.626;2023-05-22T09:06:24;100750.22;;;22.19;100.00
26775;BME280;14362;51.902;7.626;2023-05-22T09:10:28;100750.22;;;22.29;100.00
26775;BME280;14362;51.902;7.626;2023-05-22T09:14:37;100748.63;;;22.25;100.00
26775;BME280;14362;51.902;7.626;2023-05-22T09:18:39;100749.50;;;22.39;100.00
26775;BME280;14362;51.902;7.626;2023-05-22T09:22:42;100752.34;;;22.39;100.00
26775;BME280;14362;51.902;7.626;2023-05-22T09:26:47;100749.91;;;22.41;100.00
26775;BME280;14362;51.902;7.626;2023-05-22T09:30:49;100735.69;;;22.41;100.00
26775;BME280;14362;51.902;7.626;2023-05-22T09:34:50;100732.47;;;22.53;100.00
26775;BME280;14362;51.902;7.626;2023-05-22T09:38:53;100736.94;;;22.54;100.00
26775;BME280;14362;51.902;7.626;2023-05-22T09:42:55;100736.09;;;22.50;100.00
26775;BME280;14362;51.902;7.626;2023-05-22T09:46:56;100736.94;;;22.54;100.00
26775;BME280;14362;51.902;7.626;2023-05-22T09:50:59;100738.97;;;22.71;100.00
26775;BME280;14362;51.902;7.626;2023-05-22T09:55:05;100747.88;;;22.76;100.00
26775;BME280;14362;51.902;7.626;2023-05-22T09:59:08;100735.72;;;22.97;100.00
26775;BME280;14362;51.902;7.626;2023-05-22T10:03:13;100745.47;;;22.96;100.00
26775;BME280;14362;51.902;7.626;2023-05-22T10:07:17;100754.81;;;23.07;100.00
26775;BME280;14362;51.902;7.626;2023-05-22T10:11:20;100735.69;;;23.04;100.00
26775;BME280;14362;51.902;7.626;2023-05-22T10:15:23;100731.66;;;22.98;100.00
26775;BME280;14362;51.902;7.626;2023-05-22T10:19:25;100738.16;;;23.05;100.00
26775;BME280;14362;51.902;7.626;2023-05-22T10:23:28;100751.16;;;23.20;100.00
26775;BME280;14362;51.902;7.626;2023-05-22T10:27:32;100738.97;;;23.20;100.00
26775;BME280;14362;51.902;7.626;2023-05-22T10:31:38;100744.22;;;23.32;100.00
26775;BME280;14362;51.902;7.626;2023-05-22T10:35:46;100736.06;;;23.44;100.00
26775;BME280;14362;51.902;7.626;2023-05-22T10:39:59;100738.06;;;23.51;100.00
26775;BME280;14362;51.902;7.626;2023-05-22T10:44:02;100727.47;;;23.58;100.00
26775;BME280;14362;51.902;7.626;2023-05-22T10:48:05;100723.44;;;23.56;100.00
26775;BME280;14362;51.902;7.626;2023-05-22T10:52:07;100726.63;;;23.65;100.00
26775;BME280;14362;51.902;7.626;2023-05-22T10:56:10;100730.28;;;23.79;100.00
26775;BME280;14362;51.902;7.626;2023-05-22T11:00:14;100724.97;;;23.74;100.00
26775;BME280;14362;51.902;7.626;2023-05-22T11:04:18;100729.84;;;23.84;100.00
26775;BME280;14362;51.902;7.626;2023-05-22T11:08:35;100727.84;;;23.78;100.00
26775;BME280;14362;51.902;7.626;2023-05-22T11:12:39;100729.03;;;23.87;100.00
26775;BME280;14362;51.902;7.626;2023-05-22T11:16:44;100725.31;;;23.97;100.00
26775;BME280;14362;51.902;7.626;2023-05-22T11:20:46;100722.47;;;23.97;100.00
26775;BME280;14362;51.902;7.626;2023-05-22T11:24:47;100722.03;;;23.98;100.00
26775;BME280;14362;51.902;7.626;2023-05-22T11:28:50;100718.03;;;23.85;100.00
26775;BME280;14362;51.902;7.626;2023-05-22T11:32:53;100711.88;;;23.97;100.00
26775;BME280;14362;51.902;7.626;2023-05-22T11:36:58;100713.38;;;24.23;100.00
26775;BME280;14362;51.902;7.626;2023-05-22T11:41:00;100695.09;;;24.17;100.00
26775;BME280;14362;51.902;7.626;2023-05-22T11:45:02;100701.22;;;24.15;100.00
26775;BME280;14362;51.902;7.626;2023-05-22T11:49:07;100693.44;;;24.19;100.00
26775;BME280;14362;51.902;7.626;2023-05-22T11:53:09;100696.97;;;24.37;100.00
26775;BME280;14362;51.902;7.626;2023-05-22T11:57:12;100694.03;;;24.55;100.00
26775;BME280;14362;51.902;7.626;2023-05-22T12:01:14;100684.66;;;24.58;100.00
26775;BME280;14362;51.902;7.626;2023-05-22T12:05:20;100694.38;;;24.60;100.00
26775;BME280;14362;51.902;7.626;2023-05-22T12:09:21;100677.94;;;24.78;100.00
26775;BME280;14362;51.902;7.626;2023-05-22T12:13:24;100686.09;;;24.80;100.00
26775;BME280;14362;51.902;7.626;2023-05-22T12:17:27;100683.53;;;24.88;100.00
26775;BME280;14362;51.902;7.626;2023-05-22T12:21:30;100687.56;;;24.94;100.00
26775;BME280;14362;51.902;7.626;2023-05-22T12:25:32;100687.22;;;24.86;100.00
26775;BME280;14362;51.902;7.626;2023-05-22T12:29:35;100679.91;;;24.85;100.00
26775;BME280;14362;51.902;7.626;2023-05-22T12:33:38;100674.09;;;24.98;100.00
26775;BME280;14362;51.902;7.626;2023-05-22T12:37:46;100686.34;;;24.95;100.00
26775;BME280;14362;51.902;7.626;2023-05-22T12:41:48;100679.34;;;25.00;100.00
26775;BME280;14362;51.902;7.626;2023-05-22T12:45:50;100686.41;;;24.88;100.00
26775;BME280;14362;51.902;7.626;2023-05-22T12:49:51;100685.94;;;24.93;100.00
26775;BME280;14362;51.902;7.626;2023-05-22T12:53:54;100684.97;;;25.10;100.00
26775;BME280;14362;51.902;7.626;2023-05-22T12:57:55;100677.47;;;25.27;100.00
26775;BME280;14362;51.902;7.626;2023-05-22T13:01:57;100685.16;;;25.33;100.00
26775;BME280;14362;51.902;7.626;2023-05-22T13:06:01;100692.13;;;25.29;100.00
26775;BME280;14362;51.902;7.626;2023-05-22T13:10:04;100682.63;;;25.39;100.00
26775;BME280;14362;51.902;7.626;2023-05-22T13:14:06;100687.38;;;25.52;100.00
26775;BME280;14362;51.902;7.626;2023-05-22T13:18:07;100691.72;;;25.64;100.00
26775;BME280;14362;51.902;7.626;2023-05-22T13:22:09;100684.63;;;25.79;100.00
26775;BME280;14362;51.902;7.626;2023-05-22T13:26:12;100690.81;;;25.70;100.00
26775;BME280;14362;51.902;7.626;2023-05-22T13:30:13;100688.94;;;25.90;100.00
26775;BME280;14362;51.902;7.626;2023-05-22T13:34:15;100680.91;;;25.82;100.00
26775;BME280;14362;51.902;7.626;2023-05-22T13:38:16;100681.19;;;25.91;100.00
26775;BME280;14362;51.902;7.626;2023-05-22T13:42:19;100668.78;;;25.71;100.00
26775;BME280;14362;51.902;7.626;2023-05-22T13:46:21;100667.75;;;25.88;100.00
26775;BME280;14362;51.902;7.626;2023-05-22T13:50:23;100659.09;;;25.95;100.00
26775;BME280;14362;51.902;7.626;2023-05-22T13:54:25;100654.09;;;26.02;100.00
26775;BME280;14362;51.902;7.626;2023-05-22T13:58:27;100643.78;;;26.08;100.00
26775;BME280;14362;51.902;7.626;2023-05-22T14:02:29;100647.66;;;26.21;100.00
26775;BME280;14362;51.902;7.626;2023-05-22T14:06:30;100651.75;;;26.20;100.00
26775;BME280;14362;51.902;7.626;2023-05-22T14:10:32;100639.38;;;26.03;100.00
26775;BME280;14362;51.902;7.626;2023-05-22T14:14:36;100645.41;;;26.09;100.00
26775;BME280;14362;51.902;7.626;2023-05-22T14:18:37;100643.41;;;25.80;95.56
26775;BME280;14362;51.902;7.626;2023-05-22T14:22:39;100641.94;;;25.95;100.00
26775;BME280;14362;51.902;7.626;2023-05-22T14:26:40;100634.31;;;26.14;100.00
26775;BME280;14362;51.902;7.626;2023-05-22T14:30:43;100623.13;;;25.97;99.61
26775;BME280;14362;51.902;7.626;2023-05-22T14:34:45;100617.72;;;26.06;98.54
26775;BME280;14362;51.902;7.626;2023-05-22T14:38:46;100618.34;;;26.17;100.00
26775;BME280;14362;51.902;7.626;2023-05-22T14:42:48;100611.97;;;26.32;100.00
26775;BME280;14362;51.902;7.626;2023-05-22T14:46:51;100609.78;;;26.40;100.00
26775;BME280;14362;51.902;7.626;2023-05-22T14:50:54;100604.50;;;26.65;100.00
26775;BME280;14362;51.902;7.626;2023-05-22T14:54:56;100611.41;;;26.41;100.00
26775;BME280;14362;51.902;7.626;2023-05-22T14:58:57;100606.13;;;26.16;100.00
26775;BME280;14362;51.902;7.626;2023-05-22T15:03:00;100595.31;;;26.01;100.00
26775;BME280;14362;51.902;7.626;2023-05-22T15:07:03;100596.59;;;26.23;100.00
26775;BME280;14362;51.902;7.626;2023-05-22T15:11:04;100599.84;;;26.25;100.00
26775;BME280;14362;51.902;7.626;2023-05-22T15:15:06;100597.84;;;26.22;96.68
26775;BME280;14362;51.902;7.626;2023-05-22T15:19:09;100602.25;;;26.26;100.00
26775;BME280;14362;51.902;7.626;2023-05-22T15:23:11;100607.19;;;26.26;100.00
26775;BME280;14362;51.902;7.626;2023-05-22T15:27:12;100595.09;;;26.41;97.32
26775;BME280;14362;51.902;7.626;2023-05-22T15:31:15;100595.09;;;26.41;95.45
26775;BME280;14362;51.902;7.626;2023-05-22T15:35:17;100604.25;;;26.29;95.08
26775;BME280;14362;51.902;7.626;2023-05-22T15:39:19;100604.56;;;26.35;95.64
26775;BME280;14362;51.902;7.626;2023-05-22T15:43:20;100593.13;;;26.35;93.60
26775;BME280;14362;51.902;7.626;2023-05-22T15:47:22;100592.81;;;26.29;96.50
26775;BME280;14362;51.902;7.626;2023-05-22T15:51:25;100607.06;;;26.06;100.00
26775;BME280;14362;51.902;7.626;2023-05-22T15:55:27;100604.44;;;25.93;100.00
26775;BME280;14362;51.902;7.626;2023-05-22T15:59:29;100601.59;;;25.93;97.47
26775;BME280;14362;51.902;7.626;2023-05-22T16:03:30;100604.88;;;25.91;97.25
26775;BME280;14362;51.902;7.626;2023-05-22T16:07:33;100599.25;;;25.84;94.29
26775;BME280;14362;51.902;7.626;2023-05-22T16:11:34;100603.91;;;25.71;95.41
26775;BME280;14362;51.902;7.626;2023-05-22T16:15:37;100608.94;;;25.60;99.06
26775;BME280;14362;51.902;7.626;2023-05-22T16:19:39;100623.81;;;25.48;100.00
26775;BME280;14362;51.902;7.626;2023-05-22T16:23:42;100629.31;;;24.92;98.06
26775;BME280;14362;51.902;7.626;2023-05-22T16:27:43;100622.13;;;24.33;100.00
26775;BME280;14362;51.902;7.626;2023-05-22T16:31:45;100615.47;;;23.96;100.00
26775;BME280;14362;51.902;7.626;2023-05-22T16:35:46;100607.03;;;23.79;100.00
26775;BME280;14362;51.902;7.626;2023-05-22T16:39:49;100614.94;;;23.43;100.00
26775;BME280;14362;51.902;7.626;2023-05-22T16:43:50;100620.75;;;23.12;100.00
26775;BME280;14362;51.902;7.626;2023-05-22T16:47:52;100622.78;;;23.04;100.00
26775;BME280;14362;51.902;7.626;2023-05-22T16:51:54;100615.53;;;22.79;100.00
26775;BME280;14362;51.902;7.626;2023-05-22T16:55:57;100672.38;;;22.62;100.00
26775;BME280;14362;51.902;7.626;2023-05-22T16:59:58;100665.91;;;22.54;100.00
26775;BME280;14362;51.902;7.626;2023-05-22T17:04:00;100662.63;;;22.73;100.00
26775;BME280;14362;51.902;7.626;2023-05-22T17:08:01;100656.16;;;22.55;100.00
26775;BME280;14362;51.902;7.626;2023-05-22T17:12:05;100648.03;;;22.61;100.00
26775;BME280;14362;51.902;7.626;2023-05-22T17:16:06;100639.88;;;22.76;100.00
26775;BME280;14362;51.902;7.626;2023-05-22T17:20:08;100636.66;;;22.81;100.00
26775;BME280;14362;51.902;7.626;2023-05-22T17:24:10;100651.66;;;22.78;100.00
26775;BME280;14362;51.902;7.626;2023-05-22T17:28:14;100667.50;;;22.69;100.00
26775;BME280;14362;51.902;7.626;2023-05-22T17:32:15;100660.19;;;22.68;100.00
26775;BME280;14362;51.902;7.626;2023-05-22T17:36:17;100680.09;;;22.54;100.00
26775;BME280;14362;51.902;7.626;2023-05-22T17:40:18;100695.53;;;22.71;100.00
26775;BME280;14362;51.902;7.626;2023-05-22T17:44:23;100704.88;;;22.43;100.00
26775;BME280;14362;51.902;7.626;2023-05-22T17:48:24;100716.22;;;22.57;100.00
26775;BME280;14362;51.902;7.626;2023-05-22T17:52:26;100732.47;;;22.50;100.00
26775;BME280;14362;51.902;7.626;2023-05-22T17:56:27;100732.88;;;22.52;100.00
26775;BME280;14362;51.902;7.626;2023-05-22T18:00:30;100742.22;;;22.45;100.00
26775;BME280;14362;51.902;7.626;2023-05-22T18:04:32;100745.84;;;22.42;100.00
26775;BME280;14362;51.902;7.626;2023-05-22T18:08:33;100757.19;;;22.35;100.00
26775;BME280;14362;51.902;7.626;2023-05-22T18:12:35;100744.19;;;22.34;100.00
26775;BME280;14362;51.902;7.626;2023-05-22T18:16:37;100742.97;;;22.39;100.00
26775;BME280;14362;51.902;7.626;2023-05-22T18:20:39;100753.06;;;22.19;100.00
26775;BME280;14362;51.902;7.626;2023-05-22T18:24:40;100760.34;;;22.13;100.00
26775;BME280;14362;51.902;7.626;2023-05-22T18:28:42;100768.50;;;22.28;100.00
26775;BME280;14362;51.902;7.626;2023-05-22T18:32:45;100769.22;;;21.97;100.00
26775;BME280;14362;51.902;7.626;2023-05-22T18:36:46;100768.81;;;21.99;100.00
26775;BME280;14362;51.902;7.626;2023-05-22T18:40:48;100773.25;;;21.96;100.00
26775;BME280;14362;51.902;7.626;2023-05-22T18:44:51;100782.56;;;21.90;100.00
26775;BME280;14362;51.902;7.626;2023-05-22T18:48:54;100790.66;;;21.91;100.00
26775;BME280;14362;51.902;7.626;2023-05-22T18:52:59;100793.50;;;21.84;100.00
26775;BME280;14362;51.902;7.626;2023-05-22T18:57:00;100801.53;;;21.75;100.00
26775;BME280;14362;51.902;7.626;2023-05-22T19:01:02;100802.66;;;21.57;100.00
26775;BME280;14362;51.902;7.626;2023-05-22T19:05:05;100812.31;;;21.53;100.00
26775;BME280;14362;51.902;7.626;2023-05-22T19:09:07;100822.34;;;21.36;100.00
26775;BME280;14362;51.902;7.626;2023-05-22T19:13:09;100820.25;;;21.26;100.00
26775;BME280;14362;51.902;7.626;2023-05-22T19:17:11;100824.84;;;21.48;100.00
26775;BME280;14362;51.902;7.626;2023-05-22T19:21:13;100827.97;;;21.33;100.00
26775;BME280;14362;51.902;7.626;2023-05-22T19:25:15;100832.69;;;21.15;100.00
26775;BME280;14362;51.902;7.626;2023-05-22T19:29:16;100835.88;;;21.06;100.00
26775;BME280;14362;51.902;7.626;2023-05-22T19:33:18;100842.72;;;21.02;100.00
26775;BME280;14362;51.902;7.626;2023-05-22T19:37:23;100843.88;;;20.94;100.00
26775;BME280;14362;51.902;7.626;2023-05-22T19:41:25;100847.09;;;20.92;100.00
26775;BME280;14362;51.902;7.626;2023-05-22T19:45:26;100840.16;;;20.86;100.00
26775;BME280;14362;51.902;7.626;2023-05-22T19:49:28;100845.69;;;20.76;100.00
26775;BME280;14362;51.902;7.626;2023-05-22T19:53:32;100848.72;;;20.57;100.00
26775;BME280;14362;51.902;7.626;2023-05-22T19:57:33;100851.22;;;20.62;100.00
26775;BME280;14362;51.902;7.626;2023-05-22T20:01:34;100864.03;;;20.49;100.00
26775;BME280;14362;51.902;7.626;2023-05-22T20:05:36;100857.50;;;20.45;100.00
26775;BME280;14362;51.902;7.626;2023-05-22T20:09:39;100866.72;;;20.39;100.00
26775;BME280;14362;51.902;7.626;2023-05-22T20:13:40;100869.59;;;20.42;100.00
26775;BME280;14362;51.902;7.626;2023-05-22T20:17:42;100875.44;;;20.23;100.00
26775;BME280;14362;51.902;7.626;2023-05-22T20:21:46;100880.59;;;20.14;100.00
26775;BME280;14362;51.902;7.626;2023-05-22T20:25:49;100883.28;;;20.04;100.00
26775;BME280;14362;51.902;7.626;2023-05-22T20:29:52;100881.97;;;19.98;100.00
26775;BME280;14362;51.902;7.626;2023-05-22T20:33:53;100881.31;;;19.82;100.00
26775;BME280;14362;51.902;7.626;2023-05-22T20:37:54;100882.78;;;19.72;100.00
26775;BME280;14362;51.902;7.626;2023-05-22T20:41:58;100880.19;;;19.60;100.00
26775;BME280;14362;51.902;7.626;2023-05-22T20:46:01;100881.31;;;19.56;100.00
26775;BME280;14362;51.902;7.626;2023-05-22T20:50:04;100883.13;;;19.42;100.00
26775;BME280;14362;51.902;7.626;2023-05-22T20:54:06;100887.72;;;19.27;100.00